sensor_id;sensor_type;location;lat;lon;timestamp;P1;durP1;ratioP1;P2;durP2;ratioP2
19347;SDS011;9810;52.480;9.806;2023-08-06T00:01:18;1.67;;;1.57;;
19347;SDS011;9810;52.480;9.806;2023-08-06T00:03:48;2.30;;;1.90;;
19347;SDS011;9810;52.480;9.806;2023-08-06T00:06:15;2.37;;;2.03;;
19347;SDS011;9810;52.480;9.806;2023-08-06T00:08:43;2.67;;;1.80;;
19347;SDS011;9810;52.480;9.806;2023-08-06T00:11:13;2.27;;;2.00;;
19347;SDS011;9810;52.480;9.806;2023-08-06T00:13:41;2.27;;;2.07;;
19347;SDS011;9810;52.480;9.806;2023-08-06T00:16:08;1.80;;;1.70;;
19347;SDS011;9810;52.480;9.806;2023-08-06T00:18:36;3.77;;;2.10;;
19347;SDS011;9810;52.480;9.806;2023-08-06T00:21:06;4.23;;;2.77;;
19347;SDS011;9810;52.480;9.806;2023-08-06T00:23:38;2.63;;;2.43;;
19347;SDS011;9810;52.480;9.806;2023-08-06T00:26:07;4.63;;;2.00;;
19347;SDS011;9810;52.480;9.806;2023-08-06T00:28:42;2.80;;;2.60;;
19347;SDS011;9810;52.480;9.806;2023-08-06T00:31:13;2.90;;;2.50;;
19347;SDS011;9810;52.480;9.806;2023-08-06T00:33:42;4.27;;;3.30;;
19347;SDS011;9810;52.480;9.806;2023-08-06T00:36:11;3.77;;;2.67;;
19347;SDS011;9810;52.480;9.806;2023-08-06T00:38:44;4.90;;;2.87;;
19347;SDS011;9810;52.480;9.806;2023-08-06T00:41:12;6.87;;;3.10;;
19347;SDS011;9810;52.480;9.806;2023-08-06T00:43:43;3.20;;;2.67;;
19347;SDS011;9810;52.480;9.806;2023-08-06T00:46:16;4.73;;;2.50;;
19347;SDS011;9810;52.480;9.806;2023-08-06T00:48:45;3.47;;;3.00;;
19347;SDS011;9810;52.480;9.806;2023-08-06T00:51:16;5.20;;;2.83;;
19347;SDS011;9810;52.480;9.806;2023-08-06T00:53:45;4.97;;;2.60;;
19347;SDS011;9810;52.480;9.806;2023-08-06T00:56:13;3.50;;;2.73;;
19347;SDS011;9810;52.480;9.806;2023-08-06T00:58:46;5.83;;;2.60;;
19347;SDS011;9810;52.480;9.806;2023-08-06T01:01:14;2.87;;;2.30;;
19347;SDS011;9810;52.480;9.806;2023-08-06T01:03:43;3.07;;;2.17;;
19347;SDS011;9810;52.480;9.806;2023-08-06T01:06:12;5.13;;;2.70;;
19347;SDS011;9810;52.480;9.806;2023-08-06T01:08:43;4.07;;;2.60;;
19347;SDS011;9810;52.480;9.806;2023-08-06T01:11:21;3.40;;;3.00;;
19347;SDS011;9810;52.480;9.806;2023-08-06T01:13:58;4.33;;;2.63;;
19347;SDS011;9810;52.480;9.806;2023-08-06T01:16:30;4.47;;;2.60;;
19347;SDS011;9810;52.480;9.806;2023-08-06T01:18:59;4.07;;;2.47;;
19347;SDS011;9810;52.480;9.806;2023-08-06T01:21:33;3.77;;;2.70;;
19347;SDS011;9810;52.480;9.806;2023-08-06T01:24:00;3.23;;;2.53;;
19347;SDS011;9810;52.480;9.806;2023-08-06T01:26:30;3.30;;;2.63;;
19347;SDS011;9810;52.480;9.806;2023-08-06T01:29:06;4.33;;;3.30;;
19347;SDS011;9810;52.480;9.806;2023-08-06T01:31:44;5.87;;;2.77;;
19347;SDS011;9810;52.480;9.806;2023-08-06T01:34:22;3.70;;;2.90;;
19347;SDS011;9810;52.480;9.806;2023-08-06T01:36:52;2.80;;;2.60;;
19347;SDS011;9810;52.480;9.806;2023-08-06T01:39:21;3.50;;;2.70;;
19347;SDS011;9810;52.480;9.806;2023-08-06T01:41:50;3.20;;;2.60;;
19347;SDS011;9810;52.480;9.806;2023-08-06T01:44:18;2.43;;;2.23;;
19347;SDS011;9810;52.480;9.806;2023-08-06T01:46:45;3.83;;;3.00;;
19347;SDS011;9810;52.480;9.806;2023-08-06T01:49:12;3.17;;;2.60;;
19347;SDS011;9810;52.480;9.806;2023-08-06T01:51:39;3.13;;;2.83;;
19347;SDS011;9810;52.480;9.806;2023-08-06T01:54:09;5.60;;;2.63;;
19347;SDS011;9810;52.480;9.806;2023-08-06T01:56:37;3.73;;;2.53;;
19347;SDS011;9810;52.480;9.806;2023-08-06T01:59:04;3.10;;;2.80;;
19347;SDS011;9810;52.480;9.806;2023-08-06T02:01:32;3.83;;;2.30;;
19347;SDS011;9810;52.480;9.806;2023-08-06T02:04:02;3.70;;;2.67;;
19347;SDS011;9810;52.480;9.806;2023-08-06T02:06:29;4.67;;;3.20;;
19347;SDS011;9810;52.480;9.806;2023-08-06T02:08:56;3.30;;;2.80;;
19347;SDS011;9810;52.480;9.806;2023-08-06T02:11:29;4.70;;;2.87;;
19347;SDS011;9810;52.480;9.806;2023-08-06T02:13:58;6.77;;;2.73;;
19347;SDS011;9810;52.480;9.806;2023-08-06T02:16:27;3.70;;;2.67;;
19347;SDS011;9810;52.480;9.806;2023-08-06T02:18:58;3.80;;;2.83;;
19347;SDS011;9810;52.480;9.806;2023-08-06T02:21:27;5.03;;;2.77;;
19347;SDS011;9810;52.480;9.806;2023-08-06T02:23:54;5.10;;;2.63;;
19347;SDS011;9810;52.480;9.806;2023-08-06T02:26:23;4.87;;;2.97;;
19347;SDS011;9810;52.480;9.806;2023-08-06T02:28:57;3.73;;;3.20;;
19347;SDS011;9810;52.480;9.806;2023-08-06T02:31:25;6.53;;;3.93;;
19347;SDS011;9810;52.480;9.806;2023-08-06T02:33:55;6.53;;;4.80;;
19347;SDS011;9810;52.480;9.806;2023-08-06T02:36:26;11.20;;;5.13;;
19347;SDS011;9810;52.480;9.806;2023-08-06T02:38:59;8.37;;;5.50;;
19347;SDS011;9810;52.480;9.806;2023-08-06T02:41:26;10.83;;;6.57;;
19347;SDS011;9810;52.480;9.806;2023-08-06T02:43:57;12.00;;;7.13;;
19347;SDS011;9810;52.480;9.806;2023-08-06T02:46:26;15.73;;;8.43;;
19347;SDS011;9810;52.480;9.806;2023-08-06T02:48:53;11.00;;;7.13;;
19347;SDS011;9810;52.480;9.806;2023-08-06T02:51:20;11.47;;;8.43;;
19347;SDS011;9810;52.480;9.806;2023-08-06T02:53:53;16.20;;;8.27;;
19347;SDS011;9810;52.480;9.806;2023-08-06T02:56:20;13.43;;;8.33;;
19347;SDS011;9810;52.480;9.806;2023-08-06T02:58:48;13.80;;;8.07;;
19347;SDS011;9810;52.480;9.806;2023-08-06T03:01:16;12.53;;;8.47;;
19347;SDS011;9810;52.480;9.806;2023-08-06T03:03:47;13.13;;;8.97;;
19347;SDS011;9810;52.480;9.806;2023-08-06T03:06:15;11.37;;;8.40;;
19347;SDS011;9810;52.480;9.806;2023-08-06T03:08:42;12.77;;;8.53;;
19347;SDS011;9810;52.480;9.806;2023-08-06T03:11:11;14.83;;;10.00;;
19347;SDS011;9810;52.480;9.806;2023-08-06T03:13:39;17.13;;;8.90;;
19347;SDS011;9810;52.480;9.806;2023-08-06T03:16:06;16.83;;;10.57;;
19347;SDS011;9810;52.480;9.806;2023-08-06T03:18:36;13.90;;;9.73;;
19347;SDS011;9810;52.480;9.806;2023-08-06T03:21:11;19.60;;;11.17;;
19347;SDS011;9810;52.480;9.806;2023-08-06T03:23:49;17.03;;;10.57;;
19347;SDS011;9810;52.480;9.806;2023-08-06T03:26:16;15.93;;;10.00;;
19347;SDS011;9810;52.480;9.806;2023-08-06T03:28:43;20.70;;;11.10;;
19347;SDS011;9810;52.480;9.806;2023-08-06T03:31:14;16.90;;;10.50;;
19347;SDS011;9810;52.480;9.806;2023-08-06T03:33:46;14.50;;;10.40;;
19347;SDS011;9810;52.480;9.806;2023-08-06T03:36:15;16.10;;;10.20;;
19347;SDS011;9810;52.480;9.806;2023-08-06T03:38:45;16.67;;;11.33;;
19347;SDS011;9810;52.480;9.806;2023-08-06T03:41:12;15.53;;;10.40;;
19347;SDS011;9810;52.480;9.806;2023-08-06T03:43:41;22.43;;;11.47;;
19347;SDS011;9810;52.480;9.806;2023-08-06T03:46:08;16.77;;;10.50;;
19347;SDS011;9810;52.480;9.806;2023-08-06T03:48:35;19.03;;;10.77;;
19347;SDS011;9810;52.480;9.806;2023-08-06T03:51:07;27.67;;;10.53;;
19347;SDS011;9810;52.480;9.806;2023-08-06T03:53:35;33.10;;;10.73;;
19347;SDS011;9810;52.480;9.806;2023-08-06T03:56:03;32.40;;;10.40;;
19347;SDS011;9810;52.480;9.806;2023-08-06T03:58:31;33.13;;;9.87;;
19347;SDS011;9810;52.480;9.806;2023-08-06T04:01:03;74.90;;;11.67;;
19347;SDS011;9810;52.480;9.806;2023-08-06T04:03:35;34.63;;;10.40;;
19347;SDS011;9810;52.480;9.806;2023-08-06T04:06:04;52.97;;;11.83;;
19347;SDS011;9810;52.480;9.806;2023-08-06T04:08:33;43.30;;;11.13;;
19347;SDS011;9810;52.480;9.806;2023-08-06T04:11:06;62.83;;;10.93;;
19347;SDS011;9810;52.480;9.806;2023-08-06T04:13:42;53.27;;;11.33;;
19347;SDS011;9810;52.480;9.806;2023-08-06T04:16:14;66.57;;;10.80;;
19347;SDS011;9810;52.480;9.806;2023-08-06T04:18:41;88.37;;;9.50;;
19347;SDS011;9810;52.480;9.806;2023-08-06T04:21:12;106.00;;;11.93;;
19347;SDS011;9810;52.480;9.806;2023-08-06T04:23:40;90.00;;;10.70;;
19347;SDS011;9810;52.480;9.806;2023-08-06T04:26:10;41.67;;;8.30;;
19347;SDS011;9810;52.480;9.806;2023-08-06T04:28:40;48.07;;;8.43;;
19347;SDS011;9810;52.480;9.806;2023-08-06T04:31:09;15.80;;;7.33;;
19347;SDS011;9810;52.480;9.806;2023-08-06T04:33:36;48.93;;;8.70;;
19347;SDS011;9810;52.480;9.806;2023-08-06T04:36:04;35.33;;;8.27;;
19347;SDS011;9810;52.480;9.806;2023-08-06T04:38:35;37.67;;;8.37;;
19347;SDS011;9810;52.480;9.806;2023-08-06T04:41:09;37.27;;;8.07;;
19347;SDS011;9810;52.480;9.806;2023-08-06T04:43:39;37.27;;;8.13;;
19347;SDS011;9810;52.480;9.806;2023-08-06T04:46:15;37.40;;;8.23;;
19347;SDS011;9810;52.480;9.806;2023-08-06T04:48:44;22.00;;;7.63;;
19347;SDS011;9810;52.480;9.806;2023-08-06T04:51:20;12.30;;;7.13;;
19347;SDS011;9810;52.480;9.806;2023-08-06T04:53:50;20.27;;;8.23;;
19347;SDS011;9810;52.480;9.806;2023-08-06T04:56:22;20.57;;;7.73;;
19347;SDS011;9810;52.480;9.806;2023-08-06T04:58:50;17.17;;;7.57;;
19347;SDS011;9810;52.480;9.806;2023-08-06T05:01:27;16.60;;;7.57;;
19347;SDS011;9810;52.480;9.806;2023-08-06T05:04:12;13.10;;;7.10;;
19347;SDS011;9810;52.480;9.806;2023-08-06T05:06:47;22.07;;;7.13;;
19347;SDS011;9810;52.480;9.806;2023-08-06T05:09:19;17.47;;;6.80;;
19347;SDS011;9810;52.480;9.806;2023-08-06T05:12:08;18.00;;;7.53;;
19347;SDS011;9810;52.480;9.806;2023-08-06T05:14:36;13.80;;;7.13;;
19347;SDS011;9810;52.480;9.806;2023-08-06T05:17:03;11.87;;;6.43;;
19347;SDS011;9810;52.480;9.806;2023-08-06T05:19:30;13.70;;;7.30;;
19347;SDS011;9810;52.480;9.806;2023-08-06T05:21:59;10.60;;;6.67;;
19347;SDS011;9810;52.480;9.806;2023-08-06T05:24:34;9.73;;;6.87;;
19347;SDS011;9810;52.480;9.806;2023-08-06T05:27:01;9.73;;;6.70;;
19347;SDS011;9810;52.480;9.806;2023-08-06T05:29:29;10.57;;;6.33;;
19347;SDS011;9810;52.480;9.806;2023-08-06T05:31:55;12.23;;;5.97;;
19347;SDS011;9810;52.480;9.806;2023-08-06T05:34:24;11.90;;;6.43;;
19347;SDS011;9810;52.480;9.806;2023-08-06T05:36:51;9.33;;;6.30;;
19347;SDS011;9810;52.480;9.806;2023-08-06T05:39:18;9.07;;;5.70;;
19347;SDS011;9810;52.480;9.806;2023-08-06T05:41:47;9.70;;;5.90;;
19347;SDS011;9810;52.480;9.806;2023-08-06T05:44:15;9.53;;;6.77;;
19347;SDS011;9810;52.480;9.806;2023-08-06T05:46:42;8.50;;;6.13;;
19347;SDS011;9810;52.480;9.806;2023-08-06T05:49:09;11.67;;;6.40;;
19347;SDS011;9810;52.480;9.806;2023-08-06T05:51:38;10.73;;;6.33;;
19347;SDS011;9810;52.480;9.806;2023-08-06T05:54:05;15.13;;;6.90;;
19347;SDS011;9810;52.480;9.806;2023-08-06T05:56:32;12.90;;;7.73;;
19347;SDS011;9810;52.480;9.806;2023-08-06T05:59:01;14.93;;;9.20;;
19347;SDS011;9810;52.480;9.806;2023-08-06T06:01:28;13.90;;;7.60;;
19347;SDS011;9810;52.480;9.806;2023-08-06T06:03:55;13.20;;;9.00;;
19347;SDS011;9810;52.480;9.806;2023-08-06T06:06:22;14.30;;;9.67;;
19347;SDS011;9810;52.480;9.806;2023-08-06T06:08:49;15.97;;;9.07;;
19347;SDS011;9810;52.480;9.806;2023-08-06T06:11:16;14.70;;;9.03;;
19347;SDS011;9810;52.480;9.806;2023-08-06T06:13:46;13.43;;;8.67;;
19347;SDS011;9810;52.480;9.806;2023-08-06T06:16:18;12.37;;;8.87;;
19347;SDS011;9810;52.480;9.806;2023-08-06T06:18:45;18.40;;;9.17;;
19347;SDS011;9810;52.480;9.806;2023-08-06T06:21:12;15.70;;;8.33;;
19347;SDS011;9810;52.480;9.806;2023-08-06T06:23:39;12.00;;;8.20;;
19347;SDS011;9810;52.480;9.806;2023-08-06T06:26:06;13.20;;;8.70;;
19347;SDS011;9810;52.480;9.806;2023-08-06T06:28:35;14.40;;;9.30;;
19347;SDS011;9810;52.480;9.806;2023-08-06T06:31:02;16.67;;;10.47;;
19347;SDS011;9810;52.480;9.806;2023-08-06T06:33:31;16.33;;;9.80;;
19347;SDS011;9810;52.480;9.806;2023-08-06T06:35:58;12.53;;;9.30;;
19347;SDS011;9810;52.480;9.806;2023-08-06T06:38:28;16.03;;;9.63;;
19347;SDS011;9810;52.480;9.806;2023-08-06T06:40:55;13.50;;;9.40;;
19347;SDS011;9810;52.480;9.806;2023-08-06T06:43:23;14.20;;;9.37;;
19347;SDS011;9810;52.480;9.806;2023-08-06T06:45:52;17.50;;;9.40;;
19347;SDS011;9810;52.480;9.806;2023-08-06T06:48:22;13.47;;;8.40;;
19347;SDS011;9810;52.480;9.806;2023-08-06T06:50:51;15.43;;;9.90;;
19347;SDS011;9810;52.480;9.806;2023-08-06T06:53:18;13.97;;;8.33;;
19347;SDS011;9810;52.480;9.806;2023-08-06T06:55:45;14.43;;;9.73;;
19347;SDS011;9810;52.480;9.806;2023-08-06T06:58:14;13.03;;;8.47;;
19347;SDS011;9810;52.480;9.806;2023-08-06T07:00:41;13.50;;;9.27;;
19347;SDS011;9810;52.480;9.806;2023-08-06T07:03:09;13.13;;;9.43;;
19347;SDS011;9810;52.480;9.806;2023-08-06T07:05:36;10.83;;;8.03;;
19347;SDS011;9810;52.480;9.806;2023-08-06T07:08:05;11.60;;;7.13;;
19347;SDS011;9810;52.480;9.806;2023-08-06T07:10:32;11.57;;;6.70;;
19347;SDS011;9810;52.480;9.806;2023-08-06T07:12:59;8.90;;;6.20;;
19347;SDS011;9810;52.480;9.806;2023-08-06T07:15:26;9.40;;;5.77;;
19347;SDS011;9810;52.480;9.806;2023-08-06T07:17:53;8.57;;;6.17;;
19347;SDS011;9810;52.480;9.806;2023-08-06T07:20:20;7.57;;;5.00;;
19347;SDS011;9810;52.480;9.806;2023-08-06T07:22:47;6.90;;;5.50;;
19347;SDS011;9810;52.480;9.806;2023-08-06T07:25:19;7.30;;;5.63;;
19347;SDS011;9810;52.480;9.806;2023-08-06T07:27:46;9.43;;;6.17;;
19347;SDS011;9810;52.480;9.806;2023-08-06T07:30:16;6.60;;;5.37;;
19347;SDS011;9810;52.480;9.806;2023-08-06T07:32:43;9.40;;;6.73;;
19347;SDS011;9810;52.480;9.806;2023-08-06T07:35:11;6.30;;;5.23;;
19347;SDS011;9810;52.480;9.806;2023-08-06T07:37:46;7.37;;;5.53;;
19347;SDS011;9810;52.480;9.806;2023-08-06T07:40:13;4.63;;;3.73;;
19347;SDS011;9810;52.480;9.806;2023-08-06T07:42:42;5.67;;;4.30;;
19347;SDS011;9810;52.480;9.806;2023-08-06T07:45:18;5.03;;;4.20;;
19347;SDS011;9810;52.480;9.806;2023-08-06T07:47:51;4.57;;;4.00;;
19347;SDS011;9810;52.480;9.806;2023-08-06T07:50:19;6.10;;;4.73;;
19347;SDS011;9810;52.480;9.806;2023-08-06T07:52:48;5.13;;;4.40;;
19347;SDS011;9810;52.480;9.806;2023-08-06T07:55:15;5.30;;;4.53;;
19347;SDS011;9810;52.480;9.806;2023-08-06T07:57:44;5.90;;;4.07;;
19347;SDS011;9810;52.480;9.806;2023-08-06T08:00:11;11.87;;;4.33;;
19347;SDS011;9810;52.480;9.806;2023-08-06T08:02:38;4.30;;;3.30;;
19347;SDS011;9810;52.480;9.806;2023-08-06T08:05:06;5.37;;;3.20;;
19347;SDS011;9810;52.480;9.806;2023-08-06T08:07:35;4.40;;;2.77;;
19347;SDS011;9810;52.480;9.806;2023-08-06T08:10:04;4.70;;;2.60;;
19347;SDS011;9810;52.480;9.806;2023-08-06T08:12:32;2.77;;;2.17;;
19347;SDS011;9810;52.480;9.806;2023-08-06T08:15:01;2.40;;;2.20;;
19347;SDS011;9810;52.480;9.806;2023-08-06T08:17:29;2.67;;;2.20;;
19347;SDS011;9810;52.480;9.806;2023-08-06T08:19:56;2.40;;;2.20;;
19347;SDS011;9810;52.480;9.806;2023-08-06T08:22:23;2.67;;;1.80;;
19347;SDS011;9810;52.480;9.806;2023-08-06T08:24:50;3.47;;;1.50;;
19347;SDS011;9810;52.480;9.806;2023-08-06T08:27:17;3.50;;;1.55;;
19347;SDS011;9810;52.480;9.806;2023-08-06T08:29:44;5.80;;;2.17;;
19347;SDS011;9810;52.480;9.806;2023-08-06T08:32:13;2.10;;;1.90;;
19347;SDS011;9810;52.480;9.806;2023-08-06T08:34:40;3.33;;;1.60;;
19347;SDS011;9810;52.480;9.806;2023-08-06T08:37:07;2.42;;;1.50;;
19347;SDS011;9810;52.480;9.806;2023-08-06T08:39:34;2.15;;;1.88;;
19347;SDS011;9810;52.480;9.806;2023-08-06T08:42:01;2.97;;;1.60;;
19347;SDS011;9810;52.480;9.806;2023-08-06T08:44:29;2.92;;;1.77;;
19347;SDS011;9810;52.480;9.806;2023-08-06T08:46:57;4.38;;;1.80;;
19347;SDS011;9810;52.480;9.806;2023-08-06T08:49:27;2.17;;;1.98;;
19347;SDS011;9810;52.480;9.806;2023-08-06T08:51:55;1.65;;;1.55;;
19347;SDS011;9810;52.480;9.806;2023-08-06T08:54:23;1.45;;;1.35;;
19347;SDS011;9810;52.480;9.806;2023-08-06T08:56:53;2.13;;;1.80;;
19347;SDS011;9810;52.480;9.806;2023-08-06T08:59:24;2.05;;;1.48;;
19347;SDS011;9810;52.480;9.806;2023-08-06T09:01:52;3.17;;;1.55;;
19347;SDS011;9810;52.480;9.806;2023-08-06T09:04:20;2.42;;;1.83;;
19347;SDS011;9810;52.480;9.806;2023-08-06T09:06:50;1.95;;;1.67;;
19347;SDS011;9810;52.480;9.806;2023-08-06T09:09:21;4.38;;;1.70;;
19347;SDS011;9810;52.480;9.806;2023-08-06T09:11:52;2.50;;;1.60;;
19347;SDS011;9810;52.480;9.806;2023-08-06T09:14:28;3.05;;;1.33;;
19347;SDS011;9810;52.480;9.806;2023-08-06T09:16:55;2.85;;;1.55;;
19347;SDS011;9810;52.480;9.806;2023-08-06T09:19:22;1.33;;;1.23;;
19347;SDS011;9810;52.480;9.806;2023-08-06T09:21:52;3.15;;;1.30;;
19347;SDS011;9810;52.480;9.806;2023-08-06T09:24:21;1.52;;;1.42;;
19347;SDS011;9810;52.480;9.806;2023-08-06T09:26:48;2.50;;;1.70;;
19347;SDS011;9810;52.480;9.806;2023-08-06T09:29:17;2.08;;;1.60;;
19347;SDS011;9810;52.480;9.806;2023-08-06T09:31:46;1.50;;;1.40;;
19347;SDS011;9810;52.480;9.806;2023-08-06T09:34:16;1.60;;;1.50;;
19347;SDS011;9810;52.480;9.806;2023-08-06T09:36:46;1.98;;;1.83;;
19347;SDS011;9810;52.480;9.806;2023-08-06T09:39:18;1.35;;;1.25;;
19347;SDS011;9810;52.480;9.806;2023-08-06T09:41:47;1.77;;;1.52;;
19347;SDS011;9810;52.480;9.806;2023-08-06T09:44:17;5.50;;;2.00;;
19347;SDS011;9810;52.480;9.806;2023-08-06T09:46:47;2.17;;;1.80;;
19347;SDS011;9810;52.480;9.806;2023-08-06T09:49:14;1.73;;;1.45;;
19347;SDS011;9810;52.480;9.806;2023-08-06T09:51:42;1.73;;;1.40;;
19347;SDS011;9810;52.480;9.806;2023-08-06T09:54:09;2.03;;;1.52;;
19347;SDS011;9810;52.480;9.806;2023-08-06T09:56:41;2.75;;;1.52;;
19347;SDS011;9810;52.480;9.806;2023-08-06T09:59:10;1.63;;;1.52;;
19347;SDS011;9810;52.480;9.806;2023-08-06T10:01:38;4.82;;;1.70;;
19347;SDS011;9810;52.480;9.806;2023-08-06T10:04:07;1.42;;;1.30;;
19347;SDS011;9810;52.480;9.806;2023-08-06T10:06:35;2.95;;;1.98;;
19347;SDS011;9810;52.480;9.806;2023-08-06T10:09:03;2.08;;;1.80;;
19347;SDS011;9810;52.480;9.806;2023-08-06T10:11:30;1.80;;;1.70;;
19347;SDS011;9810;52.480;9.806;2023-08-06T10:14:00;2.38;;;1.80;;
19347;SDS011;9810;52.480;9.806;2023-08-06T10:16:31;3.17;;;1.67;;
19347;SDS011;9810;52.480;9.806;2023-08-06T10:19:00;1.35;;;1.20;;
19347;SDS011;9810;52.480;9.806;2023-08-06T10:21:30;2.63;;;1.55;;
19347;SDS011;9810;52.480;9.806;2023-08-06T10:23:57;1.50;;;1.40;;
19347;SDS011;9810;52.480;9.806;2023-08-06T10:26:26;1.65;;;1.55;;
19347;SDS011;9810;52.480;9.806;2023-08-06T10:28:54;3.90;;;1.92;;
19347;SDS011;9810;52.480;9.806;2023-08-06T10:34:25;3.58;;;1.58;;
19347;SDS011;9810;52.480;9.806;2023-08-06T10:37:22;3.33;;;1.58;;
19347;SDS011;9810;52.480;9.806;2023-08-06T10:39:50;3.97;;;1.90;;
19347;SDS011;9810;52.480;9.806;2023-08-06T10:42:20;1.90;;;1.73;;
19347;SDS011;9810;52.480;9.806;2023-08-06T10:47:45;2.05;;;1.52;;
19347;SDS011;9810;52.480;9.806;2023-08-06T10:50:13;2.78;;;1.77;;
19347;SDS011;9810;52.480;9.806;2023-08-06T10:52:42;3.60;;;1.95;;
19347;SDS011;9810;52.480;9.806;2023-08-06T10:55:10;2.10;;;1.90;;
19347;SDS011;9810;52.480;9.806;2023-08-06T10:57:37;2.20;;;2.00;;
19347;SDS011;9810;52.480;9.806;2023-08-06T11:00:04;4.28;;;1.58;;
19347;SDS011;9810;52.480;9.806;2023-08-06T11:02:35;1.90;;;1.70;;
19347;SDS011;9810;52.480;9.806;2023-08-06T11:05:08;2.30;;;1.77;;
19347;SDS011;9810;52.480;9.806;2023-08-06T11:07:38;2.78;;;1.42;;
19347;SDS011;9810;52.480;9.806;2023-08-06T11:10:06;2.90;;;1.67;;
19347;SDS011;9810;52.480;9.806;2023-08-06T11:12:46;2.35;;;1.50;;
19347;SDS011;9810;52.480;9.806;2023-08-06T11:15:17;2.60;;;1.55;;
19347;SDS011;9810;52.480;9.806;2023-08-06T11:17:49;2.90;;;1.70;;
19347;SDS011;9810;52.480;9.806;2023-08-06T11:20:26;2.55;;;1.83;;
19347;SDS011;9810;52.480;9.806;2023-08-06T11:22:53;3.15;;;1.65;;
19347;SDS011;9810;52.480;9.806;2023-08-06T11:25:20;1.67;;;1.58;;
19347;SDS011;9810;52.480;9.806;2023-08-06T11:27:48;6.80;;;2.25;;
19347;SDS011;9810;52.480;9.806;2023-08-06T11:30:15;1.85;;;1.70;;
19347;SDS011;9810;52.480;9.806;2023-08-06T11:32:45;3.33;;;1.58;;
19347;SDS011;9810;52.480;9.806;2023-08-06T11:35:13;8.02;;;2.22;;
19347;SDS011;9810;52.480;9.806;2023-08-06T11:37:48;58.65;;;18.17;;
19347;SDS011;9810;52.480;9.806;2023-08-06T11:40:17;2.75;;;1.58;;
19347;SDS011;9810;52.480;9.806;2023-08-06T11:42:46;201.80;;;50.47;;
19347;SDS011;9810;52.480;9.806;2023-08-06T11:45:13;79.63;;;21.00;;
19347;SDS011;9810;52.480;9.806;2023-08-06T11:47:41;91.72;;;22.33;;
19347;SDS011;9810;52.480;9.806;2023-08-06T11:50:09;20.73;;;5.95;;
19347;SDS011;9810;52.480;9.806;2023-08-06T11:53:04;13.20;;;4.88;;
19347;SDS011;9810;52.480;9.806;2023-08-06T11:55:31;5.55;;;2.45;;
19347;SDS011;9810;52.480;9.806;2023-08-06T11:57:59;14.27;;;5.15;;
19347;SDS011;9810;52.480;9.806;2023-08-06T12:00:31;9.35;;;3.13;;
19347;SDS011;9810;52.480;9.806;2023-08-06T12:02:58;4.45;;;2.65;;
19347;SDS011;9810;52.480;9.806;2023-08-06T12:05:31;5.88;;;2.42;;
19347;SDS011;9810;52.480;9.806;2023-08-06T12:08:00;5.60;;;2.70;;
19347;SDS011;9810;52.480;9.806;2023-08-06T12:10:31;4.70;;;2.30;;
19347;SDS011;9810;52.480;9.806;2023-08-06T12:13:00;4.57;;;2.30;;
19347;SDS011;9810;52.480;9.806;2023-08-06T12:15:30;4.72;;;2.22;;
19347;SDS011;9810;52.480;9.806;2023-08-06T12:18:11;4.40;;;2.33;;
19347;SDS011;9810;52.480;9.806;2023-08-06T12:20:41;4.68;;;2.67;;
19347;SDS011;9810;52.480;9.806;2023-08-06T12:23:08;4.03;;;1.80;;
19347;SDS011;9810;52.480;9.806;2023-08-06T12:25:37;2.70;;;1.80;;
19347;SDS011;9810;52.480;9.806;2023-08-06T12:28:07;3.05;;;2.35;;
19347;SDS011;9810;52.480;9.806;2023-08-06T12:30:37;3.03;;;1.77;;
19347;SDS011;9810;52.480;9.806;2023-08-06T12:33:07;5.85;;;2.67;;
19347;SDS011;9810;52.480;9.806;2023-08-06T12:35:37;4.28;;;2.45;;
19347;SDS011;9810;52.480;9.806;2023-08-06T12:38:04;2.40;;;1.88;;
19347;SDS011;9810;52.480;9.806;2023-08-06T12:40:31;2.53;;;1.80;;
19347;SDS011;9810;52.480;9.806;2023-08-06T12:43:04;2.25;;;1.98;;
19347;SDS011;9810;52.480;9.806;2023-08-06T12:45:39;6.13;;;1.83;;
19347;SDS011;9810;52.480;9.806;2023-08-06T12:48:22;6.10;;;1.50;;
19347;SDS011;9810;52.480;9.806;2023-08-06T12:50:49;6.80;;;1.40;;
19347;SDS011;9810;52.480;9.806;2023-08-06T12:53:19;3.55;;;1.80;;
19347;SDS011;9810;52.480;9.806;2023-08-06T12:55:51;2.92;;;1.58;;
19347;SDS011;9810;52.480;9.806;2023-08-06T12:58:19;5.85;;;1.70;;
19347;SDS011;9810;52.480;9.806;2023-08-06T13:00:46;1.75;;;1.60;;
19347;SDS011;9810;52.480;9.806;2023-08-06T13:03:14;1.80;;;1.70;;
19347;SDS011;9810;52.480;9.806;2023-08-06T13:05:43;2.03;;;1.60;;
19347;SDS011;9810;52.480;9.806;2023-08-06T13:08:10;2.15;;;1.55;;
19347;SDS011;9810;52.480;9.806;2023-08-06T13:10:37;1.65;;;1.55;;
19347;SDS011;9810;52.480;9.806;2023-08-06T13:13:05;2.38;;;1.67;;
19347;SDS011;9810;52.480;9.806;2023-08-06T13:15:34;4.20;;;1.60;;
19347;SDS011;9810;52.480;9.806;2023-08-06T13:18:03;2.28;;;2.08;;
19347;SDS011;9810;52.480;9.806;2023-08-06T13:20:30;4.07;;;1.80;;
19347;SDS011;9810;52.480;9.806;2023-08-06T13:22:58;2.58;;;1.50;;
19347;SDS011;9810;52.480;9.806;2023-08-06T13:25:26;2.83;;;1.83;;
19347;SDS011;9810;52.480;9.806;2023-08-06T13:27:55;1.88;;;1.58;;
19347;SDS011;9810;52.480;9.806;2023-08-06T13:30:22;1.65;;;1.30;;
19347;SDS011;9810;52.480;9.806;2023-08-06T13:32:51;2.03;;;1.33;;
19347;SDS011;9810;52.480;9.806;2023-08-06T13:35:21;1.40;;;1.20;;
19347;SDS011;9810;52.480;9.806;2023-08-06T13:37:49;1.95;;;1.60;;
19347;SDS011;9810;52.480;9.806;2023-08-06T13:40:20;5.35;;;1.30;;
19347;SDS011;9810;52.480;9.806;2023-08-06T13:42:52;1.75;;;1.30;;
19347;SDS011;9810;52.480;9.806;2023-08-06T13:45:19;1.75;;;1.33;;
19347;SDS011;9810;52.480;9.806;2023-08-06T13:47:47;1.40;;;1.27;;
19347;SDS011;9810;52.480;9.806;2023-08-06T13:50:16;1.35;;;1.20;;
19347;SDS011;9810;52.480;9.806;2023-08-06T13:52:44;2.58;;;1.63;;
19347;SDS011;9810;52.480;9.806;2023-08-06T13:55:12;1.25;;;1.15;;
19347;SDS011;9810;52.480;9.806;2023-08-06T13:57:39;2.08;;;1.52;;
19347;SDS011;9810;52.480;9.806;2023-08-06T14:00:07;1.45;;;1.35;;
19347;SDS011;9810;52.480;9.806;2023-08-06T14:02:35;1.98;;;1.52;;
19347;SDS011;9810;52.480;9.806;2023-08-06T14:05:02;2.47;;;1.50;;
19347;SDS011;9810;52.480;9.806;2023-08-06T14:07:31;1.30;;;1.20;;
19347;SDS011;9810;52.480;9.806;2023-08-06T14:09:58;1.75;;;1.25;;
19347;SDS011;9810;52.480;9.806;2023-08-06T14:12:25;1.48;;;1.35;;
19347;SDS011;9810;52.480;9.806;2023-08-06T14:14:52;3.67;;;1.20;;
19347;SDS011;9810;52.480;9.806;2023-08-06T14:17:19;1.48;;;1.10;;
19347;SDS011;9810;52.480;9.806;2023-08-06T14:19:51;1.05;;;1.00;;
19347;SDS011;9810;52.480;9.806;2023-08-06T14:22:18;0.80;;;0.80;;
19347;SDS011;9810;52.480;9.806;2023-08-06T14:24:46;2.17;;;1.30;;
19347;SDS011;9810;52.480;9.806;2023-08-06T14:27:13;1.10;;;1.00;;
19347;SDS011;9810;52.480;9.806;2023-08-06T14:29:41;2.38;;;1.05;;
19347;SDS011;9810;52.480;9.806;2023-08-06T14:32:10;2.10;;;1.10;;
19347;SDS011;9810;52.480;9.806;2023-08-06T14:34:37;0.85;;;0.85;;
19347;SDS011;9810;52.480;9.806;2023-08-06T14:37:04;1.13;;;0.82;;
19347;SDS011;9810;52.480;9.806;2023-08-06T14:39:33;4.57;;;1.30;;
19347;SDS011;9810;52.480;9.806;2023-08-06T14:42:04;2.25;;;1.00;;
19347;SDS011;9810;52.480;9.806;2023-08-06T14:44:32;0.82;;;0.82;;
19347;SDS011;9810;52.480;9.806;2023-08-06T14:46:59;1.63;;;0.95;;
19347;SDS011;9810;52.480;9.806;2023-08-06T14:49:26;1.67;;;1.10;;
19347;SDS011;9810;52.480;9.806;2023-08-06T14:51:59;2.42;;;0.90;;
19347;SDS011;9810;52.480;9.806;2023-08-06T14:54:29;1.48;;;1.10;;
19347;SDS011;9810;52.480;9.806;2023-08-06T14:56:59;1.58;;;1.10;;
19347;SDS011;9810;52.480;9.806;2023-08-06T14:59:31;0.88;;;0.88;;
19347;SDS011;9810;52.480;9.806;2023-08-06T15:02:00;1.25;;;1.10;;
19347;SDS011;9810;52.480;9.806;2023-08-06T15:04:30;1.92;;;1.27;;
19347;SDS011;9810;52.480;9.806;2023-08-06T15:06:57;2.22;;;1.45;;
19347;SDS011;9810;52.480;9.806;2023-08-06T15:09:24;1.75;;;1.35;;
19347;SDS011;9810;52.480;9.806;2023-08-06T15:11:54;3.05;;;1.70;;
19347;SDS011;9810;52.480;9.806;2023-08-06T15:14:21;1.88;;;1.60;;